Time;durP1;ratioP1;P1;durP2;ratioP2;P2;SDS_P1;SDS_P2;PMS_P1;PMS_P2;Temp;Humidity;BMP_temperature;BMP_pressure;BME280_temperature;BME280_humidity;BME280_pressure;Samples;Min_cycle;Max_cycle;Signal;HPM_P1;HPM_P2
2021/10/07 00:02:16;;;;;;;45.05;21.55;;;11.50;93.20;;;;;;5076355;28;20510;-49
2021/10/07 00:04:42;;;;;;;39.08;20.27;;;11.60;93.30;;;;;;5075721;28;20052;-54
2021/10/07 00:07:08;;;;;;;40.92;19.15;;;11.60;93.20;;;;;;5075867;28;20431;-50
2021/10/07 00:09:33;;;;;;;41.47;23.25;;;11.60;93.30;;;;;;5076223;28;20033;-49
2021/10/07 00:12:00;;;;;;;44.22;23.17;;;11.60;93.10;;;;;;5075735;28;20020;-51
2021/10/07 00:14:26;;;;;;;42.03;21.80;;;11.60;93.30;;;;;;5075647;28;20070;-53
2021/10/07 00:16:51;;;;;;;39.67;21.40;;;11.80;93.10;;;;;;5075731;28;20025;-50
2021/10/07 00:19:17;;;;;;;48.58;22.58;;;11.70;93.00;;;;;;5075687;28;20075;-52
2021/10/07 00:21:43;;;;;;;41.10;22.35;;;11.70;92.60;;;;;;5075872;28;20079;-49
2021/10/07 00:24:09;;;;;;;42.75;20.27;;;11.70;92.80;;;;;;5075808;28;20056;-55
2021/10/07 00:26:43;;;;;;;35.45;20.50;;;11.70;92.50;;;;;;5075656;28;20035;-53
2021/10/07 00:31:39;;;;;;;40.30;20.60;;;11.40;93.20;;;;;;5075721;28;20013;-51
2021/10/07 00:39:04;;;;;;;31.55;18.40;;;11.50;93.00;;;;;;5075627;28;20058;-50
2021/10/07 00:41:34;;;;;;;37.95;20.50;;;11.30;92.70;;;;;;5074990;28;20035;-51
2021/10/07 00:44:07;;;;;;;41.60;20.58;;;11.40;93.10;;;;;;5075858;28;20032;-51
2021/10/07 00:46:49;;;;;;;38.10;19.13;;;11.40;93.00;;;;;;5076038;28;20032;-52
2021/10/07 00:49:15;;;;;;;31.98;19.83;;;11.30;92.80;;;;;;5075607;28;20100;-50
2021/10/07 00:51:41;;;;;;;37.22;20.30;;;11.30;93.10;;;;;;5075542;28;20064;-50
2021/10/07 00:54:07;;;;;;;36.17;19.45;;;11.30;93.30;;;;;;5075402;28;20070;-52
2021/10/07 00:56:33;;;;;;;38.42;20.52;;;11.30;93.40;;;;;;5056449;28;20035;-49
2021/10/07 00:59:01;;;;;;;39.05;19.65;;;11.30;93.40;;;;;;5074953;28;20032;-51
2021/10/07 01:01:27;;;;;;;34.22;19.08;;;11.30;93.40;;;;;;5073508;28;20028;-51
2021/10/07 01:03:53;;;;;;;33.13;19.63;;;11.10;93.40;;;;;;5074300;28;20078;-52
2021/10/07 01:06:18;;;;;;;41.60;23.10;;;11.10;93.50;;;;;;5074550;28;20356;-49
2021/10/07 01:08:44;;;;;;;37.33;21.67;;;11.20;93.60;;;;;;5056412;28;20119;-50
2021/10/07 01:11:10;;;;;;;47.90;23.88;;;11.10;93.60;;;;;;5074097;28;20024;-51
2021/10/07 01:13:39;;;;;;;48.05;22.83;;;11.20;93.70;;;;;;5074259;28;20028;-51
2021/10/07 01:16:05;;;;;;;50.10;23.50;;;11.10;93.60;;;;;;5074246;28;20016;-49
2021/10/07 01:18:31;;;;;;;51.38;24.33;;;11.00;93.60;;;;;;5074132;28;20499;-49
2021/10/07 01:20:57;;;;;;;51.33;23.58;;;11.00;93.90;;;;;;5073976;28;20024;-48
2021/10/07 01:23:23;;;;;;;52.38;25.55;;;10.90;93.80;;;;;;5074133;28;20100;-49
2021/10/07 01:25:49;;;;;;;53.75;25.50;;;10.90;94.00;;;;;;5074067;28;20495;-52
2021/10/07 01:28:14;;;;;;;53.13;25.55;;;10.80;94.00;;;;;;5074028;28;20029;-53
2021/10/07 01:30:40;;;;;;;53.78;25.63;;;10.80;94.10;;;;;;5073778;28;20024;-51
2021/10/07 01:33:06;;;;;;;52.05;24.65;;;10.80;94.10;;;;;;5073752;28;20026;-47
2021/10/07 01:35:32;;;;;;;63.55;27.75;;;10.80;94.30;;;;;;5074118;28;20029;-50
2021/10/07 01:37:57;;;;;;;62.42;26.13;;;10.60;94.30;;;;;;5074017;28;20102;-49
2021/10/07 01:40:23;;;;;;;64.10;28.80;;;10.50;94.50;;;;;;5074063;28;20029;-49
2021/10/07 01:42:49;;;;;;;58.38;25.35;;;10.50;94.70;;;;;;5074254;28;20021;-49
2021/10/07 01:45:15;;;;;;;70.70;27.38;;;10.50;94.70;;;;;;5073998;28;20360;-51
2021/10/07 01:47:41;;;;;;;58.08;27.08;;;10.40;94.80;;;;;;5073692;28;20024;-48
2021/10/07 01:50:08;;;;;;;61.83;26.00;;;10.40;94.90;;;;;;5074212;28;20028;-48
2021/10/07 01:52:34;;;;;;;73.95;29.60;;;10.50;94.90;;;;;;5073468;28;20021;-53
2021/10/07 01:55:00;;;;;;;64.57;26.58;;;10.40;95.00;;;;;;5073523;28;20031;-51
2021/10/07 01:57:26;;;;;;;71.35;27.55;;;10.30;95.00;;;;;;5073498;28;20443;-53
2021/10/07 01:59:51;;;;;;;65.82;28.77;;;10.20;95.10;;;;;;5073693;28;20480;-51
2021/10/07 02:02:17;;;;;;;68.00;26.83;;;10.20;95.30;;;;;;5073224;28;20021;-52
2021/10/07 02:04:43;;;;;;;72.53;27.58;;;10.10;95.30;;;;;;5073202;28;20062;-48
2021/10/07 02:07:08;;;;;;;67.53;26.90;;;10.10;95.40;;;;;;5073350;28;20486;-49
2021/10/07 02:09:34;;;;;;;62.40;27.50;;;10.00;95.50;;;;;;5073296;28;20530;-49
2021/10/07 02:11:59;;;;;;;74.68;29.02;;;10.00;95.60;;;;;;5073437;28;20155;-50
2021/10/07 02:14:25;;;;;;;64.13;26.17;;;10.00;95.70;;;;;;5072919;28;20059;-50
2021/10/07 02:16:51;;;;;;;64.05;27.67;;;10.00;95.70;;;;;;5073134;28;20016;-50
2021/10/07 02:19:17;;;;;;;58.53;26.02;;;10.00;95.80;;;;;;5073092;28;20047;-51
2021/10/07 02:21:44;;;;;;;60.67;28.83;;;10.10;95.80;;;;;;5073309;28;20029;-52
2021/10/07 02:24:11;;;;;;;57.83;26.10;;;10.20;95.80;;;;;;5073742;28;20024;-53
2021/10/07 02:26:37;;;;;;;71.10;28.50;;;10.30;95.80;;;;;;5073244;28;20029;-52
2021/10/07 02:29:03;;;;;;;70.70;26.58;;;10.40;95.80;;;;;;5054955;28;20044;-53
2021/10/07 02:31:29;;;;;;;71.15;27.35;;;10.40;95.70;;;;;;5073858;28;20025;-51
2021/10/07 02:33:55;;;;;;;64.70;28.05;;;10.40;95.70;;;;;;5073375;28;20024;-49
2021/10/07 02:36:22;;;;;;;65.90;27.35;;;10.60;95.70;;;;;;5072954;28;20074;-49
2021/10/07 02:38:48;;;;;;;79.60;29.52;;;10.50;95.30;;;;;;5054976;28;20525;-49
2021/10/07 02:41:14;;;;;;;73.22;29.10;;;10.60;95.20;;;;;;5073071;28;20029;-50
2021/10/07 02:43:39;;;;;;;75.70;27.30;;;10.60;95.10;;;;;;5072782;28;20024;-50
2021/10/07 02:46:05;;;;;;;65.60;27.10;;;10.60;94.90;;;;;;5055160;28;20123;-50
2021/10/07 02:48:31;;;;;;;66.90;26.58;;;10.60;94.80;;;;;;5073202;28;20040;-50
2021/10/07 02:50:56;;;;;;;72.35;26.33;;;10.40;94.60;;;;;;5073009;28;20028;-49
2021/10/07 02:53:22;;;;;;;64.13;25.02;;;10.50;94.70;;;;;;5073288;28;20023;-50
2021/10/07 02:55:48;;;;;;;56.97;24.80;;;10.40;94.80;;;;;;5073127;28;20027;-50
2021/10/07 02:58:14;;;;;;;57.05;26.52;;;10.40;94.70;;;;;;5072864;28;20141;-49
2021/10/07 03:00:40;;;;;;;50.05;25.40;;;10.40;94.90;;;;;;5072969;28;20032;-52
2021/10/07 03:03:06;;;;;;;50.33;25.00;;;10.40;94.90;;;;;;5073382;28;20029;-51
2021/10/07 03:05:34;;;;;;;50.17;24.52;;;10.40;95.00;;;;;;5072806;28;20129;-51
2021/10/07 03:08:00;;;;;;;46.75;24.33;;;10.40;95.10;;;;;;5055037;28;20464;-52
2021/10/07 03:10:25;;;;;;;42.47;21.92;;;10.40;95.20;;;;;;5072893;28;20151;-48
2021/10/07 03:12:51;;;;;;;50.53;21.85;;;10.30;95.10;;;;;;5072707;28;20023;-49
2021/10/07 03:15:17;;;;;;;46.90;20.42;;;10.30;95.20;;;;;;5072633;28;20024;-48
2021/10/07 03:17:42;;;;;;;51.13;21.35;;;10.30;95.30;;;;;;5072489;28;20506;-48
2021/10/07 03:20:08;;;;;;;46.88;19.55;;;10.30;95.20;;;;;;5072680;28;20029;-50
2021/10/07 03:22:34;;;;;;;45.38;20.60;;;10.20;95.00;;;;;;5072724;28;20033;-53
2021/10/07 03:25:00;;;;;;;80.97;20.75;;;10.20;94.80;;;;;;5073674;28;20051;-49
2021/10/07 03:27:26;;;;;;;87.97;22.50;;;10.10;94.90;;;;;;5076382;28;20024;-52
2021/10/07 03:29:51;;;;;;;90.43;23.23;;;10.10;95.00;;;;;;5076984;28;20021;-53
2021/10/07 03:32:17;;;;;;;62.55;24.65;;;10.30;95.10;;;;;;5058306;28;20029;-52
2021/10/07 03:34:43;;;;;;;61.83;23.77;;;10.20;94.80;;;;;;5076636;28;20105;-50
2021/10/07 03:37:08;;;;;;;61.47;23.10;;;10.20;94.90;;;;;;5076771;28;20498;-49
2021/10/07 03:39:34;;;;;;;105.45;25.63;;;10.20;94.80;;;;;;5076648;28;20094;-53
2021/10/07 03:42:00;;;;;;;77.97;24.30;;;10.20;94.70;;;;;;5076469;28;20083;-52
2021/10/07 03:44:25;;;;;;;106.57;23.98;;;10.10;94.70;;;;;;5076207;28;20357;-50
2021/10/07 03:46:51;;;;;;;128.32;25.95;;;10.20;94.70;;;;;;5076107;28;20034;-50
2021/10/07 03:49:17;;;;;;;69.97;22.90;;;10.20;94.60;;;;;;5076271;28;20035;-52
2021/10/07 03:51:42;;;;;;;97.32;23.98;;;10.10;94.50;;;;;;5076175;28;20016;-53
2021/10/07 03:54:08;;;;;;;187.23;32.95;;;10.10;94.50;;;;;;5076326;28;20099;-53
2021/10/07 03:56:34;;;;;;;67.03;24.70;;;10.10;94.60;;;;;;5075841;28;20024;-53
2021/10/07 03:58:59;;;;;;;149.68;26.65;;;10.00;94.50;;;;;;5076152;28;20020;-53
2021/10/07 04:01:25;;;;;;;134.45;25.52;;;10.00;94.70;;;;;;5075978;28;20032;-54
2021/10/07 04:03:50;;;;;;;99.88;23.95;;;10.10;94.90;;;;;;5057594;28;20035;-50
2021/10/07 04:06:16;;;;;;;67.43;23.50;;;10.10;94.80;;;;;;5075679;28;20035;-51
2021/10/07 04:08:42;;;;;;;65.38;23.77;;;10.20;94.90;;;;;;5075494;28;20033;-52
2021/10/07 04:11:08;;;;;;;52.47;22.60;;;10.20;94.50;;;;;;5075493;28;20362;-52
2021/10/07 04:13:33;;;;;;;49.55;22.65;;;10.20;94.30;;;;;;5075450;28;20029;-38
2021/10/07 04:15:59;;;;;;;48.13;22.25;;;10.10;94.40;;;;;;5075268;28;20448;-38
2021/10/07 04:18:24;;;;;;;45.17;21.38;;;10.00;94.50;;;;;;5075209;28;20038;-37
2021/10/07 04:20:50;;;;;;;46.45;20.48;;;10.00;94.60;;;;;;5075221;28;20081;-37
2021/10/07 04:23:18;;;;;;;56.75;23.73;;;10.00;94.70;;;;;;5075146;28;20032;-37
2021/10/07 04:25:43;;;;;;;54.35;20.50;;;10.00;94.90;;;;;;5075344;28;20074;-37
2021/10/07 04:28:09;;;;;;;42.97;20.80;;;10.00;94.90;;;;;;5075414;28;20033;-38
2021/10/07 04:30:39;;;;;;;49.50;22.27;;;10.00;94.90;;;;;;5075090;28;20016;-38
2021/10/07 04:33:07;;;;;;;46.00;19.65;;;9.90;94.90;;;;;;5075115;28;20020;-38
2021/10/07 04:35:33;;;;;;;79.32;22.73;;;10.00;95.00;;;;;;5075443;28;20384;-38
2021/10/07 04:37:59;;;;;;;68.85;22.10;;;10.20;95.00;;;;;;5075101;28;20029;-37
2021/10/07 04:40:26;;;;;;;112.85;28.27;;;10.00;94.30;;;;;;5074872;28;20024;-37
2021/10/07 04:42:52;;;;;;;78.28;25.27;;;10.00;94.50;;;;;;5075137;28;20050;-37
2021/10/07 04:45:18;;;;;;;99.93;27.42;;;10.00;94.70;;;;;;5075185;28;20025;-37
2021/10/07 04:47:43;;;;;;;65.70;22.90;;;9.90;94.70;;;;;;5075450;28;20039;-37
2021/10/07 04:50:09;;;;;;;159.85;27.48;;;10.00;94.80;;;;;;5075228;28;20028;-37
2021/10/07 04:52:35;;;;;;;225.52;33.55;;;10.20;94.80;;;;;;5074739;28;20206;-37
2021/10/07 04:55:01;;;;;;;256.33;39.40;;;10.20;94.40;;;;;;5074575;28;20096;-37
2021/10/07 04:57:29;;;;;;;67.63;26.00;;;10.10;94.10;;;;;;5074523;28;20111;-37
2021/10/07 04:59:54;;;;;;;63.83;24.00;;;10.10;94.30;;;;;;5074643;28;20036;-37
2021/10/07 05:02:20;;;;;;;71.03;24.40;;;10.00;94.30;;;;;;5074771;28;20365;-37
2021/10/07 05:04:46;;;;;;;59.67;22.08;;;9.90;94.40;;;;;;5074195;28;20048;-37
2021/10/07 05:07:11;;;;;;;49.33;19.98;;;9.90;94.70;;;;;;5074690;28;20024;-37
2021/10/07 05:09:37;;;;;;;56.40;21.30;;;9.90;94.70;;;;;;5074423;28;20025;-37
2021/10/07 05:12:03;;;;;;;119.60;23.50;;;9.80;94.60;;;;;;5074443;28;20432;-39
2021/10/07 05:14:29;;;;;;;64.72;22.10;;;9.80;94.70;;;;;;5074433;28;20108;-38
2021/10/07 05:16:54;;;;;;;60.70;21.65;;;9.80;94.50;;;;;;5074108;28;20055;-38
2021/10/07 05:19:20;;;;;;;61.25;20.30;;;9.90;94.70;;;;;;5074472;28;20025;-38
2021/10/07 05:21:45;;;;;;;54.45;20.50;;;10.00;94.60;;;;;;5074173;28;20439;-38
2021/10/07 05:24:11;;;;;;;55.13;21.48;;;10.00;94.30;;;;;;5073952;28;20025;-38
2021/10/07 05:26:37;;;;;;;57.42;19.98;;;9.80;94.30;;;;;;5073632;28;20235;-38
2021/10/07 05:29:02;;;;;;;56.22;21.25;;;9.80;94.50;;;;;;5073836;28;20087;-38
2021/10/07 05:31:28;;;;;;;54.72;21.38;;;9.80;94.50;;;;;;5074014;28;20021;-38
2021/10/07 05:33:54;;;;;;;49.25;19.92;;;9.80;94.60;;;;;;5073841;28;20030;-38
2021/10/07 05:36:19;;;;;;;53.72;20.48;;;9.80;94.60;;;;;;5073832;28;20469;-38
2021/10/07 05:38:45;;;;;;;40.78;19.45;;;9.80;94.60;;;;;;5073692;28;20470;-38
2021/10/07 05:41:11;;;;;;;40.95;18.25;;;9.90;94.60;;;;;;5055804;28;20052;-38
2021/10/07 05:43:36;;;;;;;37.67;17.63;;;9.80;94.60;;;;;;5073602;28;20024;-38
2021/10/07 05:46:02;;;;;;;39.97;19.10;;;9.70;94.60;;;;;;5073954;28;20108;-37
2021/10/07 05:48:28;;;;;;;68.68;22.17;;;9.70;94.60;;;;;;5073054;28;20439;-36
2021/10/07 05:50:54;;;;;;;80.72;18.83;;;9.60;94.70;;;;;;5073515;28;20056;-38
2021/10/07 05:53:20;;;;;;;49.55;20.23;;;9.50;94.90;;;;;;5074401;28;20481;-36
2021/10/07 05:55:45;;;;;;;46.00;20.92;;;9.60;95.10;;;;;;5073821;28;20483;-37
2021/10/07 05:58:11;;;;;;;49.92;21.85;;;9.70;95.20;;;;;;5073585;28;20325;-36
2021/10/07 06:00:37;;;;;;;56.92;22.35;;;9.70;95.20;;;;;;5073481;28;20067;-37
2021/10/07 06:03:09;;;;;;;43.22;22.52;;;9.70;95.20;;;;;;5073665;28;20032;-37
2021/10/07 06:05:34;;;;;;;46.95;24.73;;;9.70;95.10;;;;;;5073190;28;20084;-37
2021/10/07 06:08:00;;;;;;;50.17;21.80;;;9.80;95.20;;;;;;5073190;28;20048;-37
2021/10/07 06:10:26;;;;;;;58.53;21.08;;;9.80;95.10;;;;;;5056590;28;20144;-39
2021/10/07 06:12:51;;;;;;;51.80;22.10;;;9.80;95.10;;;;;;5055731;28;20045;-38
2021/10/07 06:15:17;;;;;;;59.28;23.75;;;9.80;95.10;;;;;;5073578;28;20473;-37
2021/10/07 06:17:43;;;;;;;118.43;24.13;;;9.80;95.00;;;;;;5074046;28;20025;-36
2021/10/07 06:22:54;;;;;;;98.68;28.20;;;9.90;95.10;;;;;;5073594;28;20028;-38
2021/10/07 06:25:20;;;;;;;55.47;24.80;;;10.00;94.90;;;;;;5072736;28;20049;-38
2021/10/07 06:27:47;;;;;;;53.40;21.85;;;10.00;94.90;;;;;;5073645;28;20392;-37
2021/10/07 06:30:13;;;;;;;49.40;23.27;;;9.90;94.80;;;;;;5073865;28;20051;-38
2021/10/07 06:32:39;;;;;;;60.97;23.80;;;9.90;94.90;;;;;;5055294;28;20021;-37
2021/10/07 06:35:05;;;;;;;79.38;23.23;;;9.90;94.90;;;;;;5072664;28;20123;-38
2021/10/07 06:37:34;;;;;;;65.10;23.73;;;10.00;94.90;;;;;;5072552;28;20103;-38
2021/10/07 06:40:00;;;;;;;71.30;24.38;;;10.10;94.90;;;;;;5054867;28;20027;-38
2021/10/07 06:42:25;;;;;;;57.00;23.52;;;10.20;94.80;;;;;;5072770;28;20464;-38
2021/10/07 06:44:51;;;;;;;74.55;25.10;;;10.10;94.50;;;;;;5072504;28;20054;-38
2021/10/07 06:47:16;;;;;;;57.15;24.30;;;10.10;94.70;;;;;;5054364;28;20035;-38
2021/10/07 06:49:42;;;;;;;60.40;25.27;;;10.30;94.70;;;;;;5072686;28;20029;-37
2021/10/07 06:52:08;;;;;;;54.78;25.65;;;10.30;94.60;;;;;;5053989;28;20028;-38
2021/10/07 06:54:34;;;;;;;51.83;22.33;;;10.30;94.50;;;;;;5072473;28;20021;-38
2021/10/07 06:57:00;;;;;;;49.35;22.88;;;10.30;94.30;;;;;;5072334;28;20017;-37
2021/10/07 06:59:25;;;;;;;47.05;22.05;;;10.30;94.20;;;;;;5073054;28;20456;-37
2021/10/07 07:01:51;;;;;;;53.60;22.85;;;10.30;94.30;;;;;;5076555;28;20544;-38
2021/10/07 07:04:17;;;;;;;45.40;21.10;;;10.30;94.40;;;;;;5076262;28;20439;-38
2021/10/07 07:06:45;;;;;;;51.67;23.80;;;10.30;94.40;;;;;;5078923;28;20017;-57
2021/10/07 07:09:12;;;;;;;52.88;22.33;;;10.30;94.40;;;;;;5076756;28;20043;-51
2021/10/07 07:11:38;;;;;;;50.40;24.30;;;10.30;94.40;;;;;;5077071;28;20070;-52
2021/10/07 07:14:05;;;;;;;49.47;22.52;;;10.20;94.30;;;;;;5076629;28;20360;-49
2021/10/07 07:16:35;;;;;;;50.88;23.77;;;10.20;94.20;;;;;;5078507;28;20025;-49
2021/10/07 07:19:01;;;;;;;45.35;24.00;;;10.40;94.30;;;;;;5060168;28;20534;-50
2021/10/07 07:21:33;;;;;;;44.13;20.90;;;10.30;94.00;;;;;;5076308;28;20047;-52
2021/10/07 07:24:00;;;;;;;52.13;23.63;;;10.40;94.00;;;;;;5076385;28;20468;-51
2021/10/07 07:26:26;;;;;;;50.78;21.20;;;10.40;93.80;;;;;;5076120;28;20055;-49
2021/10/07 07:28:53;;;;;;;49.30;23.55;;;10.30;93.80;;;;;;5075868;28;20055;-52
2021/10/07 07:31:22;;;;;;;53.28;25.00;;;10.40;93.80;;;;;;5078063;28;20082;-52
2021/10/07 07:33:48;;;;;;;47.97;23.23;;;10.50;93.80;;;;;;5058191;28;20034;-48
2021/10/07 07:36:14;;;;;;;52.90;23.30;;;10.50;93.70;;;;;;5075679;28;20059;-51
2021/10/07 07:38:42;;;;;;;48.42;22.13;;;10.80;93.60;;;;;;5075931;28;20059;-49
2021/10/07 07:41:10;;;;;;;48.15;24.35;;;10.80;93.20;;;;;;5041290;28;20157;-50
2021/10/07 07:43:37;;;;;;;41.63;21.10;;;10.90;92.70;;;;;;5075775;28;20021;-50
2021/10/07 07:46:02;;;;;;;48.45;22.58;;;10.90;92.30;;;;;;5075543;28;20085;-51
2021/10/07 07:48:28;;;;;;;43.53;22.23;;;10.80;92.40;;;;;;5075296;28;20441;-50
2021/10/07 07:50:54;;;;;;;47.80;23.20;;;10.80;92.40;;;;;;5075179;28;20103;-49
2021/10/07 07:53:19;;;;;;;46.53;21.92;;;10.60;92.50;;;;;;5075290;28;20047;-51
2021/10/07 07:55:45;;;;;;;45.90;21.80;;;10.60;92.60;;;;;;5075365;28;20028;-51
2021/10/07 07:58:12;;;;;;;48.30;23.58;;;10.60;92.90;;;;;;5074842;28;20126;-53
2021/10/07 08:00:38;;;;;;;42.67;22.13;;;10.70;93.00;;;;;;5075088;28;20035;-50
2021/10/07 08:03:04;;;;;;;50.72;24.77;;;10.80;93.10;;;;;;5057153;28;20487;-49
2021/10/07 08:05:30;;;;;;;47.05;22.95;;;11.00;92.10;;;;;;5075322;28;20095;-52
2021/10/07 08:07:56;;;;;;;45.88;24.65;;;11.10;92.10;;;;;;5057139;28;20061;-48
2021/10/07 08:10:21;;;;;;;44.35;23.13;;;11.10;91.80;;;;;;5074809;28;20103;-48
2021/10/07 08:12:47;;;;;;;46.85;20.92;;;11.10;91.90;;;;;;5075203;28;20409;-49
2021/10/07 08:15:13;;;;;;;41.38;19.65;;;10.90;91.90;;;;;;5074733;28;20354;-49
2021/10/07 08:17:39;;;;;;;55.40;22.65;;;10.90;92.30;;;;;;5075091;28;20052;-50
2021/10/07 08:20:07;;;;;;;50.58;21.95;;;11.10;92.30;;;;;;5056764;28;20033;-49
2021/10/07 08:22:36;;;;;;;57.20;23.42;;;11.30;91.90;;;;;;5075272;28;20028;-51
2021/10/07 08:25:03;;;;;;;52.17;22.20;;;11.30;91.50;;;;;;5077789;28;20055;-49
2021/10/07 08:27:29;;;;;;;51.17;22.30;;;11.10;91.40;;;;;;5074859;28;20024;-49
2021/10/07 08:29:55;;;;;;;42.88;21.08;;;11.20;92.00;;;;;;5075313;28;20035;-50
2021/10/07 08:32:22;;;;;;;50.22;22.85;;;11.10;91.40;;;;;;5074850;28;20186;-48
2021/10/07 08:34:48;;;;;;;51.95;24.98;;;11.20;91.60;;;;;;5074706;28;20021;-50
2021/10/07 08:37:13;;;;;;;55.90;25.48;;;11.30;90.80;;;;;;5074649;28;20040;-49
2021/10/07 08:39:39;;;;;;;48.92;20.88;;;11.40;90.90;;;;;;5057358;28;20025;-52
2021/10/07 08:42:05;;;;;;;44.97;21.73;;;11.40;90.60;;;;;;5074422;28;20048;-49
2021/10/07 08:44:31;;;;;;;45.10;21.70;;;11.40;90.40;;;;;;5074691;28;20028;-49
2021/10/07 08:46:58;;;;;;;44.67;22.45;;;11.40;90.70;;;;;;5074479;28;20028;-51
2021/10/07 08:49:27;;;;;;;48.67;21.15;;;11.50;90.20;;;;;;5073941;28;20074;-48
2021/10/07 08:51:53;;;;;;;50.05;24.50;;;11.60;90.20;;;;;;5073898;28;20040;-49
2021/10/07 08:54:19;;;;;;;50.47;22.23;;;11.70;90.00;;;;;;5074266;28;20557;-49
2021/10/07 08:56:45;;;;;;;50.13;25.70;;;11.70;89.90;;;;;;5056182;28;20031;-50
2021/10/07 08:59:11;;;;;;;52.70;24.25;;;11.50;89.70;;;;;;5074169;28;20465;-49
2021/10/07 09:01:58;;;;;;;49.97;23.20;;;11.50;90.20;;;;;;5074488;28;20452;-48
2021/10/07 09:04:36;;;;;;;47.58;23.38;;;11.50;90.10;;;;;;5056809;28;20056;-50
2021/10/07 09:07:05;;;;;;;44.75;21.90;;;11.60;90.00;;;;;;5074311;28;20091;-48
2021/10/07 09:09:34;;;;;;;41.27;20.47;;;11.80;88.90;;;;;;5056045;28;20039;-49
2021/10/07 09:12:04;;;;;;;50.95;24.77;;;12.00;88.50;;;;;;5073863;28;20431;-51
2021/10/07 09:14:33;;;;;;;44.05;23.95;;;12.30;88.00;;;;;;5073484;28;20032;-50
2021/10/07 09:17:01;;;;;;;39.15;21.02;;;12.30;87.10;;;;;;5073462;28;20027;-47
2021/10/07 09:19:32;;;;;;;40.85;20.60;;;12.20;86.70;;;;;;5073475;28;20031;-51
2021/10/07 09:22:18;;;;;;;36.92;19.42;;;11.80;87.70;;;;;;5055233;28;20024;-52
2021/10/07 09:24:48;;;;;;;38.67;20.17;;;11.50;88.40;;;;;;5073522;28;20067;-50
2021/10/07 09:27:23;;;;;;;41.77;21.97;;;11.40;89.10;;;;;;5073483;28;20024;-49
2021/10/07 09:30:03;;;;;;;39.17;20.33;;;11.40;89.40;;;;;;5073578;28;20314;-48
2021/10/07 09:32:33;;;;;;;44.28;23.15;;;11.70;89.60;;;;;;5074008;28;20024;-49
2021/10/07 09:35:00;;;;;;;34.53;19.67;;;11.70;89.40;;;;;;5073330;28;20028;-52
2021/10/07 09:37:35;;;;;;;34.45;19.00;;;11.80;89.40;;;;;;5073366;28;20558;-51
2021/10/07 09:40:04;;;;;;;31.73;18.23;;;11.90;88.50;;;;;;5074613;28;20032;-48
2021/10/07 09:42:33;;;;;;;31.80;20.25;;;12.00;87.50;;;;;;5073254;28;20024;-49
2021/10/07 09:45:09;;;;;;;29.50;18.52;;;12.20;87.00;;;;;;5072777;28;20036;-49
2021/10/07 09:47:38;;;;;;;36.72;20.67;;;12.10;87.50;;;;;;5073220;28;20025;-48
2021/10/07 09:50:10;;;;;;;28.52;16.95;;;12.10;88.10;;;;;;5073242;28;20017;-53
2021/10/07 09:52:40;;;;;;;31.30;17.88;;;12.20;86.50;;;;;;5054797;28;20116;-51
2021/10/07 09:55:13;;;;;;;35.65;19.75;;;12.20;86.40;;;;;;5073044;28;20499;-50
2021/10/07 09:57:50;;;;;;;29.48;18.05;;;12.10;87.10;;;;;;5073459;28;20085;-49
2021/10/07 10:00:16;;;;;;;35.40;19.67;;;12.20;87.30;;;;;;5073640;28;20095;-49
2021/10/07 10:02:42;;;;;;;34.42;21.00;;;12.10;87.80;;;;;;5073743;28;20094;-49
2021/10/07 10:05:09;;;;;;;31.15;18.98;;;12.10;87.50;;;;;;5054921;28;20488;-49
2021/10/07 10:07:35;;;;;;;31.08;19.05;;;11.90;87.60;;;;;;5072857;28;20025;-52
2021/10/07 10:10:03;;;;;;;34.42;20.17;;;11.90;88.10;;;;;;5072764;28;20028;-52
2021/10/07 10:12:31;;;;;;;36.92;21.60;;;12.00;88.10;;;;;;5072862;28;20044;-53
2021/10/07 10:14:56;;;;;;;36.30;19.52;;;12.20;87.90;;;;;;5055533;28;20027;-50
2021/10/07 10:17:23;;;;;;;31.33;18.00;;;12.10;87.50;;;;;;5072769;28;20028;-50
2021/10/07 10:19:52;;;;;;;32.97;18.08;;;12.30;87.30;;;;;;5072609;28;20077;-52
2021/10/07 10:22:23;;;;;;;38.08;20.35;;;12.30;86.30;;;;;;5054409;28;20025;-50
2021/10/07 10:24:50;;;;;;;41.38;21.40;;;12.30;86.80;;;;;;5072693;28;20023;-49
2021/10/07 10:27:16;;;;;;;32.83;18.80;;;12.40;86.80;;;;;;5054423;28;20064;-51
2021/10/07 10:29:42;;;;;;;33.05;18.23;;;12.80;85.10;;;;;;5072449;28;20060;-48
2021/10/07 10:32:11;;;;;;;34.97;19.13;;;13.10;84.00;;;;;;5072376;28;20025;-49
2021/10/07 10:34:41;;;;;;;31.02;17.40;;;13.20;83.70;;;;;;5072084;28;20028;-49
2021/10/07 10:37:08;;;;;;;27.60;16.85;;;13.30;82.30;;;;;;5072626;28;20104;-54
2021/10/07 10:39:37;;;;;;;34.83;18.88;;;13.00;83.10;;;;;;5071882;28;20016;-50
2021/10/07 10:42:18;;;;;;;36.03;18.67;;;13.50;82.80;;;;;;5072393;28;20024;-49
2021/10/07 10:44:46;;;;;;;31.70;19.70;;;14.30;79.20;;;;;;5072380;28;20039;-49
2021/10/07 10:47:12;;;;;;;31.65;19.55;;;14.70;77.60;;;;;;5072617;28;20063;-52
2021/10/07 10:49:56;;;;;;;23.80;15.45;;;15.10;76.70;;;;;;5054249;28;20025;-52
2021/10/07 10:52:29;;;;;;;26.95;16.00;;;15.80;72.90;;;;;;5021395;28;20488;-52
2021/10/07 10:54:57;;;;;;;22.38;14.75;;;15.40;72.80;;;;;;5054143;28;20069;-51
2021/10/07 10:57:32;;;;;;;24.75;15.43;;;14.90;74.50;;;;;;5072945;28;20032;-50
2021/10/07 11:00:08;;;;;;;23.27;14.40;;;14.60;76.40;;;;;;5054035;28;20119;-50
2021/10/07 11:02:34;;;;;;;26.67;15.85;;;14.90;76.20;;;;;;5055451;28;20024;-49
2021/10/07 11:05:12;;;;;;;23.13;13.95;;;15.20;74.50;;;;;;5054395;28;20049;-50
2021/10/07 11:07:37;;;;;;;20.55;13.60;;;15.60;73.20;;;;;;5072284;28;20033;-50
2021/10/07 11:10:27;;;;;;;19.35;13.88;;;16.80;68.60;;;;;;5072690;28;20031;-51
2021/10/07 11:12:57;;;;;;;20.13;14.03;;;16.90;68.80;;;;;;5071908;28;20036;-52
2021/10/07 11:15:28;;;;;;;22.25;13.88;;;16.80;68.60;;;;;;5072563;28;20020;-49
2021/10/07 11:17:55;;;;;;;21.73;13.30;;;17.00;68.00;;;;;;5071823;28;20028;-50
2021/10/07 11:20:30;;;;;;;23.33;14.68;;;18.40;63.30;;;;;;5072032;28;20435;-49
2021/10/07 11:23:16;;;;;;;22.35;13.60;;;18.30;64.60;;;;;;5072446;28;20179;-51
2021/10/07 11:25:47;;;;;;;21.73;15.18;;;18.20;63.40;;;;;;5037141;28;20029;-52
2021/10/07 11:28:13;;;;;;;19.38;13.23;;;16.60;67.80;;;;;;5071710;28;20032;-51
2021/10/07 11:30:41;;;;;;;19.55;12.82;;;16.30;68.80;;;;;;5071671;28;20025;-51
2021/10/07 11:33:07;;;;;;;20.38;12.60;;;15.00;72.90;;;;;;5072250;28;20496;-50
2021/10/07 11:35:34;;;;;;;19.05;12.02;;;14.60;75.30;;;;;;5053851;28;20032;-49
2021/10/07 11:38:14;;;;;;;25.50;13.05;;;14.90;73.80;;;;;;5071933;28;20071;-48
2021/10/07 11:40:44;;;;;;;22.60;14.02;;;15.50;72.10;;;;;;5071947;28;20104;-51
2021/10/07 11:43:15;;;;;;;20.50;12.63;;;15.40;72.40;;;;;;5072123;28;20023;-49
2021/10/07 11:45:47;;;;;;;20.73;13.38;;;15.00;73.60;;;;;;5071787;28;20067;-53
2021/10/07 11:48:13;;;;;;;16.23;11.45;;;15.30;73.50;;;;;;5075538;28;20029;-53
2021/10/07 11:50:47;;;;;;;19.95;13.15;;;15.80;71.10;;;;;;5074593;28;20025;-50
2021/10/07 11:53:26;;;;;;;20.30;12.60;;;15.70;72.00;;;;;;5057130;28;20025;-50
2021/10/07 11:55:51;;;;;;;19.25;12.07;;;15.40;72.20;;;;;;5074745;28;20020;-50
2021/10/07 11:58:17;;;;;;;20.52;13.00;;;14.70;74.30;;;;;;5075128;28;20016;-52
2021/10/07 12:00:45;;;;;;;21.17;13.27;;;14.60;75.60;;;;;;5074857;28;20020;-49
2021/10/07 12:03:27;;;;;;;18.05;13.00;;;14.30;76.80;;;;;;5074860;28;20029;-50
2021/10/07 12:06:14;;;;;;;19.20;11.88;;;14.40;76.70;;;;;;5056853;28;20041;-52
2021/10/07 12:08:41;;;;;;;20.83;11.73;;;14.50;76.20;;;;;;5075519;28;20055;-53
2021/10/07 12:11:10;;;;;;;19.10;12.30;;;14.80;75.30;;;;;;5075074;28;20461;-53
2021/10/07 12:13:45;;;;;;;18.42;10.90;;;14.60;74.70;;;;;;5075459;28;20089;-48
2021/10/07 12:16:22;;;;;;;19.75;10.10;;;14.20;75.40;;;;;;5075433;28;20120;-50
2021/10/07 12:19:01;;;;;;;16.35;10.73;;;14.60;74.90;;;;;;5075232;28;20384;-52
2021/10/07 12:21:31;;;;;;;22.23;12.57;;;15.00;74.60;;;;;;5075289;28;20133;-49
2021/10/07 12:24:03;;;;;;;12.57;9.10;;;15.40;71.60;;;;;;5074763;28;20103;-50
2021/10/07 12:26:40;;;;;;;17.10;10.32;;;15.50;70.40;;;;;;5074849;28;20115;-49
2021/10/07 12:29:26;;;;;;;13.63;9.80;;;16.00;69.40;;;;;;5074764;28;20031;-54
2021/10/07 12:31:57;;;;;;;15.07;10.35;;;16.10;69.60;;;;;;5075056;28;20024;-53
2021/10/07 12:34:27;;;;;;;14.75;9.50;;;15.80;69.50;;;;;;5074852;28;20098;-48
2021/10/07 12:36:53;;;;;;;;;;;15.30;70.40;;;;;;5075138;28;20043;-53
2021/10/07 12:39:22;;;;;;;12.10;8.15;;;15.50;70.60;;;;;;5074850;28;19905;-50
2021/10/07 12:41:54;;;;;;;14.98;8.15;;;15.30;70.60;;;;;;5074407;28;20467;-48